Time;durP1;ratioP1;P1;durP2;ratioP2;P2;SDS_P1;SDS_P2;PMS_P1;PMS_P2;Temp;Humidity;BMP_temperature;BMP_pressure;BME280_temperature;BME280_humidity;BME280_pressure;Samples;Min_cycle;Max_cycle;Signal;HPM_P1;HPM_P2
2023/11/11 00:00:07;;;;;;;3.10;1.60;;;;;;;;;;5046557;28;20446;-80
2023/11/11 00:02:35;;;;;;;6.07;1.33;;;;;;;;;;5044601;28;20487;-81
2023/11/11 00:05:05;;;;;;;6.07;1.97;;;;;;;;;;5045029;28;20913;-79
2023/11/11 00:07:32;;;;;;;2.83;1.47;;;;;;;;;;5041965;28;20458;-79
2023/11/11 00:10:04;;;;;;;4.13;1.30;;;;;;;;;;5042004;28;20450;-80
2023/11/11 00:12:34;;;;;;;5.03;2.00;;;;;;;;;;5044322;28;20518;-81
2023/11/11 00:15:02;;;;;;;4.90;1.50;;;;;;;;;;5044517;28;20549;-79
2023/11/11 00:17:31;;;;;;;3.40;1.30;;;;;;;;;;5045209;28;20518;-81
2023/11/11 00:20:00;;;;;;;5.37;1.17;;;;;;;;;;5043783;28;20454;-78
2023/11/11 00:22:29;;;;;;;4.70;1.40;;;;;;;;;;5044141;28;20928;-81
2023/11/11 00:24:57;;;;;;;4.33;1.33;;;;;;;;;;5043309;28;20489;-80
2023/11/11 00:27:27;;;;;;;6.23;1.47;;;;;;;;;;5045860;28;20473;-80
2023/11/11 00:29:56;;;;;;;4.70;1.30;;;;;;;;;;5047470;28;20874;-81
2023/11/11 00:32:24;;;;;;;4.17;1.70;;;;;;;;;;5044466;28;20496;-79
2023/11/11 00:34:52;;;;;;;3.70;1.70;;;;;;;;;;5043239;28;20501;-79
2023/11/11 00:37:19;;;;;;;3.53;1.40;;;;;;;;;;5042111;28;20481;-81
2023/11/11 00:39:48;;;;;;;5.60;1.37;;;;;;;;;;5042709;28;20454;-81
2023/11/11 00:42:17;;;;;;;4.97;1.70;;;;;;;;;;5043186;28;20458;-80
2023/11/11 00:44:45;;;;;;;4.33;1.43;;;;;;;;;;5043821;28;20949;-82
2023/11/11 00:47:13;;;;;;;5.00;1.47;;;;;;;;;;5045086;28;20458;-80
2023/11/11 00:49:41;;;;;;;3.37;1.47;;;;;;;;;;5043548;28;20438;-80
2023/11/11 00:52:09;;;;;;;2.90;1.47;;;;;;;;;;5044416;28;20858;-80
2023/11/11 00:54:38;;;;;;;3.00;1.27;;;;;;;;;;5045583;28;20450;-80
2023/11/11 00:57:07;;;;;;;4.40;1.50;;;;;;;;;;5043169;28;20454;-79
2023/11/11 00:59:35;;;;;;;6.23;2.27;;;;;;;;;;5043928;28;20485;-81
2023/11/11 01:02:04;;;;;;;3.17;1.47;;;;;;;;;;5043000;28;20454;-79
2023/11/11 01:04:34;;;;;;;4.23;1.30;;;;;;;;;;5044731;28;20458;-78
2023/11/11 01:07:02;;;;;;;4.90;1.20;;;;;;;;;;5043421;28;20497;-79
2023/11/11 01:09:42;;;;;;;5.50;1.70;;;;;;;;;;5044581;28;20518;-80
2023/11/11 01:12:15;;;;;;;2.87;1.17;;;;;;;;;;5045916;28;20535;-78
2023/11/11 01:14:44;;;;;;;7.10;1.40;;;;;;;;;;5048393;28;20481;-80
2023/11/11 01:17:15;;;;;;;4.30;1.37;;;;;;;;;;5050216;28;20818;-81
2023/11/11 01:19:45;;;;;;;4.30;1.73;;;;;;;;;;5046803;28;20906;-80
2023/11/11 01:22:16;;;;;;;4.37;1.37;;;;;;;;;;5046791;28;20767;-79
2023/11/11 01:24:43;;;;;;;4.50;1.93;;;;;;;;;;5047173;28;20464;-80
2023/11/11 01:27:13;;;;;;;4.33;1.37;;;;;;;;;;5048343;28;20857;-80
2023/11/11 01:29:44;;;;;;;4.93;1.40;;;;;;;;;;5051146;28;20745;-80
2023/11/11 01:32:12;;;;;;;3.87;1.33;;;;;;;;;;5048845;28;20859;-80
2023/11/11 01:34:40;;;;;;;5.50;1.70;;;;;;;;;;5051360;28;20445;-81
2023/11/11 01:37:08;;;;;;;4.00;1.23;;;;;;;;;;5049659;28;20509;-79
2023/11/11 01:39:36;;;;;;;3.20;1.50;;;;;;;;;;5048798;28;20686;-80
2023/11/11 01:42:05;;;;;;;3.43;1.10;;;;;;;;;;5048480;28;20485;-81
2023/11/11 01:44:34;;;;;;;4.50;1.50;;;;;;;;;;5045793;28;20458;-78
2023/11/11 01:47:04;;;;;;;4.30;1.40;;;;;;;;;;5051493;28;20485;-79
2023/11/11 01:49:33;;;;;;;4.00;1.20;;;;;;;;;;5048442;28;20532;-82
2023/11/11 01:52:01;;;;;;;3.57;1.40;;;;;;;;;;5048447;28;20821;-80
2023/11/11 01:54:31;;;;;;;5.17;1.60;;;;;;;;;;5048586;28;20450;-79
2023/11/11 01:56:59;;;;;;;7.30;2.00;;;;;;;;;;5050885;28;20459;-80
2023/11/11 01:59:28;;;;;;;4.53;1.57;;;;;;;;;;5046975;28;20553;-81
2023/11/11 02:01:59;;;;;;;3.47;1.73;;;;;;;;;;5049208;28;20454;-79
2023/11/11 02:04:27;;;;;;;3.40;1.50;;;;;;;;;;5046355;28;20458;-80
2023/11/11 02:06:55;;;;;;;7.30;1.60;;;;;;;;;;5045907;28;20565;-80
2023/11/11 02:09:23;;;;;;;4.60;2.00;;;;;;;;;;5043952;28;20469;-78
2023/11/11 02:11:54;;;;;;;4.43;1.60;;;;;;;;;;5047176;28;20469;-80
2023/11/11 02:14:22;;;;;;;7.60;1.67;;;;;;;;;;5045528;28;20481;-81
2023/11/11 02:16:50;;;;;;;5.10;1.77;;;;;;;;;;5045535;28;20460;-80
2023/11/11 02:19:20;;;;;;;7.00;1.80;;;;;;;;;;5046707;28;20496;-81
2023/11/11 02:21:48;;;;;;;4.70;1.50;;;;;;;;;;5048201;28;20458;-80
2023/11/11 02:24:18;;;;;;;4.40;1.57;;;;;;;;;;5047107;28;20462;-80
2023/11/11 02:26:47;;;;;;;4.93;1.67;;;;;;;;;;5051046;28;20510;-79
2023/11/11 02:29:15;;;;;;;4.20;1.47;;;;;;;;;;5049103;28;20478;-79
2023/11/11 02:31:43;;;;;;;6.20;2.10;;;;;;;;;;5050816;28;20478;-79
2023/11/11 02:34:11;;;;;;;4.50;1.20;;;;;;;;;;5050233;28;20878;-80
2023/11/11 02:36:39;;;;;;;8.40;2.00;;;;;;;;;;5047602;28;20718;-80
2023/11/11 02:39:08;;;;;;;4.90;2.23;;;;;;;;;;5047493;28;20749;-79
2023/11/11 02:41:37;;;;;;;4.00;1.83;;;;;;;;;;5046756;28;20478;-80
2023/11/11 02:44:06;;;;;;;6.70;1.47;;;;;;;;;;5046155;28;20450;-80
2023/11/11 02:46:36;;;;;;;9.43;1.87;;;;;;;;;;5046217;28;20565;-80
2023/11/11 02:49:04;;;;;;;4.33;1.60;;;;;;;;;;5044975;28;20462;-79
2023/11/11 02:51:32;;;;;;;5.93;3.03;;;;;;;;;;5045152;28;20491;-81
2023/11/11 02:54:00;;;;;;;4.20;1.60;;;;;;;;;;5044641;28;20473;-81
2023/11/11 02:56:28;;;;;;;5.70;2.10;;;;;;;;;;5044113;28;20458;-79
2023/11/11 02:58:58;;;;;;;5.03;1.83;;;;;;;;;;5045820;28;20597;-79
2023/11/11 03:01:25;;;;;;;4.33;2.47;;;;;;;;;;5047944;28;20468;-80
2023/11/11 03:03:54;;;;;;;7.60;1.73;;;;;;;;;;5046021;28;20438;-80
2023/11/11 03:06:24;;;;;;;7.80;2.17;;;;;;;;;;5048044;28;20524;-80
2023/11/11 03:08:52;;;;;;;7.40;1.97;;;;;;;;;;5045272;28;20454;-79
2023/11/11 03:11:21;;;;;;;4.90;2.70;;;;;;;;;;5046180;28;20521;-79
2023/11/11 03:13:49;;;;;;;4.53;1.67;;;;;;;;;;5047607;28;20905;-80
2023/11/11 03:16:19;;;;;;;3.40;1.83;;;;;;;;;;5043665;28;20781;-79
2023/11/11 03:18:48;;;;;;;4.97;1.73;;;;;;;;;;5047167;28;20470;-79
2023/11/11 03:21:21;;;;;;;5.23;2.40;;;;;;;;;;5046677;28;20539;-80
2023/11/11 03:23:49;;;;;;;4.60;1.97;;;;;;;;;;5044240;28;20450;-80
2023/11/11 03:26:19;;;;;;;4.70;1.77;;;;;;;;;;5047771;28;20545;-78
2023/11/11 03:28:50;;;;;;;5.27;1.80;;;;;;;;;;5044212;28;20446;-79
2023/11/11 03:31:21;;;;;;;7.13;2.20;;;;;;;;;;5045541;28;20475;-81
2023/11/11 03:33:49;;;;;;;7.87;1.70;;;;;;;;;;5048062;28;20542;-79
2023/11/11 03:36:19;;;;;;;5.63;1.60;;;;;;;;;;5043522;28;20446;-79
2023/11/11 03:38:48;;;;;;;8.33;1.80;;;;;;;;;;5049478;28;20466;-79
2023/11/11 03:41:16;;;;;;;4.47;1.50;;;;;;;;;;5048578;28;20443;-79
2023/11/11 03:43:43;;;;;;;9.63;2.53;;;;;;;;;;5046586;28;20718;-80
2023/11/11 03:46:11;;;;;;;6.93;1.93;;;;;;;;;;5048525;28;20486;-79
2023/11/11 03:48:40;;;;;;;5.83;2.17;;;;;;;;;;5045047;28;20461;-80
2023/11/11 03:51:08;;;;;;;5.40;1.80;;;;;;;;;;5044426;28;20478;-80
2023/11/11 03:53:38;;;;;;;5.40;1.60;;;;;;;;;;5047139;28;20469;-81
2023/11/11 03:56:07;;;;;;;5.50;1.67;;;;;;;;;;5047800;28;20442;-80
2023/11/11 03:58:36;;;;;;;4.73;2.20;;;;;;;;;;5049908;28;20528;-78
2023/11/11 04:01:04;;;;;;;5.43;2.20;;;;;;;;;;5048426;28;20535;-80
2023/11/11 04:03:31;;;;;;;5.63;2.10;;;;;;;;;;5047458;28;20497;-79
2023/11/11 04:06:01;;;;;;;4.60;1.93;;;;;;;;;;5045344;28;20566;-79
2023/11/11 04:08:29;;;;;;;5.83;2.00;;;;;;;;;;5046765;28;20469;-79
2023/11/11 04:10:57;;;;;;;4.97;2.10;;;;;;;;;;5046431;28;20469;-79
2023/11/11 04:13:25;;;;;;;6.10;2.60;;;;;;;;;;5044357;28;20488;-79
2023/11/11 04:15:57;;;;;;;4.97;1.90;;;;;;;;;;5044286;28;20442;-80
2023/11/11 04:18:25;;;;;;;8.33;2.53;;;;;;;;;;5046075;28;20491;-80
2023/11/11 04:20:53;;;;;;;3.37;1.70;;;;;;;;;;5046930;28;20469;-80
2023/11/11 04:23:24;;;;;;;7.17;2.07;;;;;;;;;;5045596;28;20462;-80
2023/11/11 04:25:53;;;;;;;5.77;2.23;;;;;;;;;;5045134;28;20518;-78
2023/11/11 04:28:21;;;;;;;7.27;1.90;;;;;;;;;;5046930;28;20450;-80
2023/11/11 04:30:51;;;;;;;7.50;1.80;;;;;;;;;;5047154;28;20466;-78
2023/11/11 04:33:19;;;;;;;6.17;1.57;;;;;;;;;;5047829;28;20431;-81
2023/11/11 04:35:46;;;;;;;5.30;2.23;;;;;;;;;;5047241;28;20453;-81
2023/11/11 04:38:14;;;;;;;7.90;2.07;;;;;;;;;;5047010;28;20547;-81
2023/11/11 04:40:44;;;;;;;4.77;1.70;;;;;;;;;;5046463;28;20463;-80
2023/11/11 04:43:13;;;;;;;4.33;1.90;;;;;;;;;;5046651;28;20458;-78
2023/11/11 04:45:41;;;;;;;7.20;1.90;;;;;;;;;;5047006;28;20518;-79
2023/11/11 04:48:09;;;;;;;5.93;1.73;;;;;;;;;;5045760;28;20462;-80
2023/11/11 04:50:37;;;;;;;10.03;2.10;;;;;;;;;;5046517;28;20442;-80
2023/11/11 04:53:05;;;;;;;5.20;1.97;;;;;;;;;;5045957;28;20537;-81
2023/11/11 04:55:32;;;;;;;5.73;2.03;;;;;;;;;;5046210;28;20533;-79
2023/11/11 04:58:03;;;;;;;4.47;1.80;;;;;;;;;;5045902;28;20454;-79
2023/11/11 05:00:31;;;;;;;5.33;2.20;;;;;;;;;;5045523;28;20554;-79
2023/11/11 05:03:00;;;;;;;4.40;2.10;;;;;;;;;;5047199;28;20462;-80
2023/11/11 05:05:28;;;;;;;6.90;1.83;;;;;;;;;;5045231;28;20794;-79
2023/11/11 05:07:56;;;;;;;7.03;2.30;;;;;;;;;;5044728;28;20501;-79
2023/11/11 05:10:24;;;;;;;5.87;2.80;;;;;;;;;;5046390;28;20442;-78
2023/11/11 05:12:53;;;;;;;12.70;2.67;;;;;;;;;;5043215;28;20481;-79
2023/11/11 05:15:25;;;;;;;10.50;2.10;;;;;;;;;;5045910;28;20469;-79
2023/11/11 05:17:53;;;;;;;5.20;2.07;;;;;;;;;;5043509;28;20454;-79
2023/11/11 05:20:21;;;;;;;6.37;2.30;;;;;;;;;;5046036;28;20921;-80
2023/11/11 05:22:49;;;;;;;3.07;1.70;;;;;;;;;;5047827;28;20474;-79
2023/11/11 05:25:17;;;;;;;6.70;2.30;;;;;;;;;;5046225;28;20446;-80
2023/11/11 05:27:45;;;;;;;4.23;2.30;;;;;;;;;;5047577;28;20549;-79
2023/11/11 05:30:18;;;;;;;5.90;2.50;;;;;;;;;;5047821;28;20497;-79
2023/11/11 05:32:48;;;;;;;4.63;2.37;;;;;;;;;;5048448;28;20462;-81
2023/11/11 05:35:16;;;;;;;5.70;2.07;;;;;;;;;;5046807;28;20462;-79
2023/11/11 05:37:43;;;;;;;6.20;2.20;;;;;;;;;;5046949;28;20462;-79
2023/11/11 05:40:18;;;;;;;7.10;2.70;;;;;;;;;;5047403;28;20462;-78
2023/11/11 05:42:48;;;;;;;5.50;2.20;;;;;;;;;;5043717;28;20453;-79
2023/11/11 05:45:20;;;;;;;5.23;1.67;;;;;;;;;;5047140;28;20450;-79
2023/11/11 05:47:49;;;;;;;5.63;2.17;;;;;;;;;;5041981;28;20493;-79
2023/11/11 05:50:23;;;;;;;6.20;2.80;;;;;;;;;;5044423;28;20462;-80
2023/11/11 05:52:51;;;;;;;5.37;2.67;;;;;;;;;;5040497;28;20454;-79
2023/11/11 05:55:24;;;;;;;6.93;2.90;;;;;;;;;;5042222;28;20454;-79
2023/11/11 05:57:54;;;;;;;4.00;2.10;;;;;;;;;;5041960;28;20505;-79
2023/11/11 06:00:22;;;;;;;12.37;2.80;;;;;;;;;;5045793;28;20540;-79
2023/11/11 06:02:53;;;;;;;5.30;3.77;;;;;;;;;;5051902;28;20438;-78
2023/11/11 06:05:21;;;;;;;7.87;2.23;;;;;;;;;;5047562;28;20516;-80
2023/11/11 06:07:50;;;;;;;10.00;2.90;;;;;;;;;;5049554;28;20493;-78
2023/11/11 06:10:19;;;;;;;7.37;2.80;;;;;;;;;;5049333;28;20896;-78
2023/11/11 06:12:47;;;;;;;4.80;2.33;;;;;;;;;;5048845;28;20450;-79
2023/11/11 06:15:17;;;;;;;4.90;2.13;;;;;;;;;;5050287;28;20460;-79
2023/11/11 06:17:44;;;;;;;5.93;2.20;;;;;;;;;;5045458;28;20874;-78
2023/11/11 06:20:17;;;;;;;12.50;2.63;;;;;;;;;;5049091;28;20576;-80
2023/11/11 06:22:45;;;;;;;3.70;1.90;;;;;;;;;;5048592;28;20501;-79
2023/11/11 06:25:12;;;;;;;4.23;2.43;;;;;;;;;;5045206;28;20442;-80
2023/11/11 06:27:40;;;;;;;3.90;2.10;;;;;;;;;;5045059;28;20492;-81
2023/11/11 06:30:10;;;;;;;7.77;2.67;;;;;;;;;;5046515;28;20465;-79
2023/11/11 06:32:37;;;;;;;5.67;2.20;;;;;;;;;;5046648;28;20482;-80
2023/11/11 06:35:07;;;;;;;6.43;2.40;;;;;;;;;;5044692;28;20683;-80
2023/11/11 06:37:38;;;;;;;8.03;3.53;;;;;;;;;;5044771;28;20750;-80
2023/11/11 06:40:09;;;;;;;9.53;2.90;;;;;;;;;;5044571;28;20539;-79
2023/11/11 06:42:37;;;;;;;6.10;2.90;;;;;;;;;;5048288;28;20707;-81
2023/11/11 06:45:09;;;;;;;9.60;2.63;;;;;;;;;;5050763;28;20458;-78
2023/11/11 06:47:37;;;;;;;5.97;2.83;;;;;;;;;;5050742;28;20602;-79
2023/11/11 06:50:11;;;;;;;7.07;3.30;;;;;;;;;;5046633;28;20493;-80
2023/11/11 06:52:41;;;;;;;15.50;3.60;;;;;;;;;;5046940;28;20453;-79
2023/11/11 06:55:12;;;;;;;6.13;2.90;;;;;;;;;;5044630;28;20442;-79
2023/11/11 06:57:41;;;;;;;6.73;2.40;;;;;;;;;;5046428;28;20442;-79
2023/11/11 07:00:15;;;;;;;6.87;2.97;;;;;;;;;;5044343;28;20498;-80
2023/11/11 07:02:56;;;;;;;10.77;3.20;;;;;;;;;;5043608;28;20534;-79
2023/11/11 07:05:23;;;;;;;9.90;2.73;;;;;;;;;;5043555;28;20482;-79
2023/11/11 07:07:58;;;;;;;6.57;2.70;;;;;;;;;;5043170;28;20490;-79
2023/11/11 07:10:30;;;;;;;3.83;2.20;;;;;;;;;;5044049;28;20497;-80
2023/11/11 07:12:58;;;;;;;8.10;2.40;;;;;;;;;;5043089;28;20505;-78
2023/11/11 07:15:27;;;;;;;10.77;3.30;;;;;;;;;;5041968;28;20625;-78
2023/11/11 07:17:57;;;;;;;7.70;3.20;;;;;;;;;;5040850;28;20450;-78
2023/11/11 07:20:28;;;;;;;7.90;2.90;;;;;;;;;;5041992;28;20458;-78
2023/11/11 07:22:57;;;;;;;4.57;2.57;;;;;;;;;;5046819;28;20512;-77
2023/11/11 07:25:27;;;;;;;6.27;2.90;;;;;;;;;;5045894;28;20446;-78
2023/11/11 07:27:55;;;;;;;5.90;3.33;;;;;;;;;;5045832;28;20462;-79
2023/11/11 07:30:23;;;;;;;11.43;3.07;;;;;;;;;;5043720;28;20839;-79
2023/11/11 07:32:52;;;;;;;5.97;2.97;;;;;;;;;;5042811;28;20554;-78
2023/11/11 07:35:19;;;;;;;8.13;3.10;;;;;;;;;;5048251;28;20454;-79
2023/11/11 07:37:48;;;;;;;6.87;3.10;;;;;;;;;;5040348;28;20517;-78
2023/11/11 07:40:18;;;;;;;6.60;2.97;;;;;;;;;;5046339;28;20470;-79
2023/11/11 07:42:53;;;;;;;5.40;2.90;;;;;;;;;;5040983;28;20730;-79
2023/11/11 07:45:27;;;;;;;5.50;3.23;;;;;;;;;;5043639;28;21126;-80
2023/11/11 07:47:59;;;;;;;8.03;3.43;;;;;;;;;;5052745;28;20477;-79
2023/11/11 07:50:29;;;;;;;8.00;3.53;;;;;;;;;;5045716;28;20497;-78
2023/11/11 07:52:57;;;;;;;8.43;3.03;;;;;;;;;;5043218;28;20492;-79
2023/11/11 07:55:25;;;;;;;6.63;3.23;;;;;;;;;;5045933;28;20465;-79
2023/11/11 07:57:54;;;;;;;6.73;3.40;;;;;;;;;;5045016;28;20865;-80
2023/11/11 08:00:23;;;;;;;5.63;2.53;;;;;;;;;;5051478;28;20515;-80
2023/11/11 08:02:51;;;;;;;8.43;2.70;;;;;;;;;;5041891;28;20458;-80
2023/11/11 08:05:19;;;;;;;8.23;3.30;;;;;;;;;;5042110;28;20533;-79
2023/11/11 08:07:47;;;;;;;7.23;3.07;;;;;;;;;;5041702;28;20509;-79
2023/11/11 08:10:18;;;;;;;13.17;4.53;;;;;;;;;;5041705;28;20450;-79
2023/11/11 08:12:46;;;;;;;10.20;3.27;;;;;;;;;;5041111;28;20434;-80
2023/11/11 08:15:15;;;;;;;6.30;2.83;;;;;;;;;;5041325;28;20442;-80
2023/11/11 08:17:45;;;;;;;9.60;4.10;;;;;;;;;;5040803;28;20445;-78
2023/11/11 08:20:18;;;;;;;11.47;4.40;;;;;;;;;;5040408;28;20728;-80
2023/11/11 08:22:48;;;;;;;10.30;3.90;;;;;;;;;;5040894;28;20435;-80
2023/11/11 08:25:16;;;;;;;7.10;2.73;;;;;;;;;;5041862;28;20459;-81
2023/11/11 08:27:50;;;;;;;4.30;2.60;;;;;;;;;;5024082;28;20478;-78
2023/11/11 08:30:21;;;;;;;6.50;2.70;;;;;;;;;;5038615;28;20453;-78
2023/11/11 08:32:49;;;;;;;9.97;3.07;;;;;;;;;;5037680;28;20490;-79
2023/11/11 08:35:17;;;;;;;7.03;3.40;;;;;;;;;;5027258;28;20493;-78
2023/11/11 08:37:49;;;;;;;6.97;3.63;;;;;;;;;;5036679;28;20477;-79
2023/11/11 08:40:18;;;;;;;4.80;2.70;;;;;;;;;;5040856;28;20466;-80
2023/11/11 08:42:46;;;;;;;4.93;2.87;;;;;;;;;;5041160;28;20450;-78
2023/11/11 08:45:17;;;;;;;4.80;2.40;;;;;;;;;;5038722;28;20562;-80
2023/11/11 08:47:46;;;;;;;7.00;2.60;;;;;;;;;;5040810;28;20482;-81
2023/11/11 08:50:16;;;;;;;6.30;2.50;;;;;;;;;;5035539;28;20464;-81
2023/11/11 08:52:44;;;;;;;6.43;2.73;;;;;;;;;;5021251;28;20459;-78
2023/11/11 08:55:13;;;;;;;3.70;2.30;;;;;;;;;;5019217;28;20452;-80
2023/11/11 08:57:42;;;;;;;6.53;3.07;;;;;;;;;;5026641;28;20459;-79
2023/11/11 09:00:12;;;;;;;3.07;1.57;;;;;;;;;;5027677;28;20455;-79
2023/11/11 09:02:40;;;;;;;4.60;2.23;;;;;;;;;;5045205;28;20549;-79
2023/11/11 09:05:09;;;;;;;4.30;1.93;;;;;;;;;;5044042;28;20461;-80
2023/11/11 09:07:37;;;;;;;5.00;2.63;;;;;;;;;;5042445;28;20501;-79
2023/11/11 09:10:09;;;;;;;4.30;2.40;;;;;;;;;;5044515;28;20445;-79
2023/11/11 09:12:40;;;;;;;3.50;1.87;;;;;;;;;;5023820;28;20860;-79
2023/11/11 09:15:08;;;;;;;4.30;2.00;;;;;;;;;;5022237;28;20460;-78
2023/11/11 09:17:37;;;;;;;7.50;2.53;;;;;;;;;;5020522;28;20451;-79
2023/11/11 09:20:09;;;;;;;7.03;2.53;;;;;;;;;;5023677;28;20459;-79
2023/11/11 09:22:37;;;;;;;9.57;2.97;;;;;;;;;;5039914;28;20462;-79
2023/11/11 09:25:05;;;;;;;4.10;2.50;;;;;;;;;;5040477;28;20820;-78
2023/11/11 09:27:33;;;;;;;5.07;2.50;;;;;;;;;;5042768;28;20442;-80
2023/11/11 09:30:01;;;;;;;3.93;2.07;;;;;;;;;;5039412;28;20462;-79
2023/11/11 09:32:29;;;;;;;4.80;1.97;;;;;;;;;;5037062;28;20721;-79
2023/11/11 09:34:56;;;;;;;3.20;1.77;;;;;;;;;;5042214;28;20493;-80
2023/11/11 09:37:26;;;;;;;3.20;1.70;;;;;;;;;;5041527;28;20470;-78
2023/11/11 09:39:53;;;;;;;4.13;2.00;;;;;;;;;;5044622;28;20854;-79
2023/11/11 09:42:21;;;;;;;5.03;2.50;;;;;;;;;;5041429;28;20458;-79
2023/11/11 09:44:49;;;;;;;7.03;2.70;;;;;;;;;;5042741;28;20458;-80
2023/11/11 09:47:19;;;;;;;6.93;2.80;;;;;;;;;;5036378;28;20459;-81
2023/11/11 09:49:47;;;;;;;2.97;1.60;;;;;;;;;;5040820;28;20754;-79
2023/11/11 09:52:15;;;;;;;6.27;2.17;;;;;;;;;;5043525;28;20442;-79
2023/11/11 09:54:48;;;;;;;4.30;2.27;;;;;;;;;;5043846;28;20458;-80
2023/11/11 09:57:16;;;;;;;3.53;1.77;;;;;;;;;;5043913;28;20888;-79
2023/11/11 09:59:44;;;;;;;4.20;2.23;;;;;;;;;;5042264;28;20450;-82
2023/11/11 10:02:13;;;;;;;5.17;2.60;;;;;;;;;;5042775;28;21091;-78
2023/11/11 10:04:41;;;;;;;4.80;2.33;;;;;;;;;;5040272;28;20729;-78
2023/11/11 10:07:10;;;;;;;4.17;2.53;;;;;;;;;;5037583;28;20443;-80
2023/11/11 10:09:38;;;;;;;4.50;2.40;;;;;;;;;;5040619;28;20747;-79
2023/11/11 10:12:08;;;;;;;4.33;2.67;;;;;;;;;;5041195;28;20499;-78
2023/11/11 10:14:38;;;;;;;6.27;3.23;;;;;;;;;;5041574;28;20464;-81
2023/11/11 10:17:18;;;;;;;4.17;2.60;;;;;;;;;;5040947;28;20484;-79
2023/11/11 10:19:49;;;;;;;4.47;2.57;;;;;;;;;;5039788;28;20611;-80
2023/11/11 10:22:22;;;;;;;5.20;3.50;;;;;;;;;;5042588;28;20451;-79
2023/11/11 10:24:53;;;;;;;6.60;3.50;;;;;;;;;;5039505;28;20905;-77
2023/11/11 10:27:25;;;;;;;8.90;4.80;;;;;;;;;;5021920;28;20490;-79
2023/11/11 10:29:53;;;;;;;5.07;3.03;;;;;;;;;;5024825;28;20486;-78
2023/11/11 10:32:21;;;;;;;8.53;4.70;;;;;;;;;;5024068;28;20507;-80
2023/11/11 10:34:55;;;;;;;8.77;4.33;;;;;;;;;;5025058;28;20465;-80
2023/11/11 10:37:23;;;;;;;8.67;5.23;;;;;;;;;;5026326;28;20568;-79
2023/11/11 10:39:51;;;;;;;7.07;4.53;;;;;;;;;;5023089;28;20457;-78
2023/11/11 10:42:19;;;;;;;6.53;3.73;;;;;;;;;;5023452;28;20518;-80
2023/11/11 10:44:50;;;;;;;10.57;6.07;;;;;;;;;;5037296;28;20450;-80
2023/11/11 10:47:20;;;;;;;6.70;4.63;;;;;;;;;;5041730;28;20471;-78
2023/11/11 10:49:48;;;;;;;7.40;4.90;;;;;;;;;;5040951;28;20550;-79
2023/11/11 10:52:17;;;;;;;7.37;4.17;;;;;;;;;;5041962;28;20447;-80
2023/11/11 10:54:45;;;;;;;9.93;4.70;;;;;;;;;;5042757;28;20584;-81
2023/11/11 10:57:14;;;;;;;7.20;4.90;;;;;;;;;;5037943;28;20845;-79
2023/11/11 10:59:42;;;;;;;8.80;5.03;;;;;;;;;;5026998;28;20459;-80
2023/11/11 11:02:12;;;;;;;9.17;6.40;;;;;;;;;;5034027;28;20502;-78
2023/11/11 11:04:46;;;;;;;7.83;5.13;;;;;;;;;;5042257;28;20450;-79
2023/11/11 11:07:15;;;;;;;10.30;6.43;;;;;;;;;;5040357;28;20447;-81
2023/11/11 11:09:47;;;;;;;9.20;5.70;;;;;;;;;;5039907;28;20486;-78
2023/11/11 11:12:21;;;;;;;9.10;5.50;;;;;;;;;;5038646;28;20544;-78
2023/11/11 11:14:51;;;;;;;8.50;5.30;;;;;;;;;;5034648;28;20455;-80
2023/11/11 11:17:28;;;;;;;12.93;6.20;;;;;;;;;;5020994;28;20546;-78
2023/11/11 11:20:14;;;;;;;7.50;5.03;;;;;;;;;;5022688;28;20458;-78
2023/11/11 11:22:50;;;;;;;8.53;6.27;;;;;;;;;;5041117;28;20557;-79
2023/11/11 11:25:50;;;;;;;11.33;7.30;;;;;;;;;;5039761;28;20505;-78
2023/11/11 11:28:24;;;;;;;7.80;4.53;;;;;;;;;;4981968;28;20512;-79
2023/11/11 11:31:04;;;;;;;9.43;6.57;;;;;;;;;;5035302;28;20455;-80
2023/11/11 11:33:35;;;;;;;10.37;6.13;;;;;;;;;;5025996;28;20517;-78
2023/11/11 11:36:05;;;;;;;8.80;5.30;;;;;;;;;;5023423;28;20985;-80
2023/11/11 11:38:37;;;;;;;9.50;6.73;;;;;;;;;;5024298;28;20479;-78
2023/11/11 11:41:10;;;;;;;9.37;6.33;;;;;;;;;;5027197;28;20501;-78
2023/11/11 11:43:39;;;;;;;11.57;7.10;;;;;;;;;;5037697;28;20910;-78
2023/11/11 11:46:07;;;;;;;9.50;7.00;;;;;;;;;;5043249;28;20517;-80
2023/11/11 11:48:44;;;;;;;9.10;7.00;;;;;;;;;;5046579;28;20494;-80
2023/11/11 11:51:13;;;;;;;14.27;7.10;;;;;;;;;;5046601;28;20538;-79
2023/11/11 11:53:42;;;;;;;7.50;5.90;;;;;;;;;;5044130;28;20450;-79
2023/11/11 11:56:13;;;;;;;7.10;5.20;;;;;;;;;;5042785;28;20466;-81
2023/11/11 11:58:46;;;;;;;8.23;5.90;;;;;;;;;;5043348;28;20880;-80
2023/11/11 12:01:22;;;;;;;16.43;5.80;;;;;;;;;;5045122;28;20442;-79
2023/11/11 12:03:51;;;;;;;6.40;4.97;;;;;;;;;;5045012;28;20476;-80
2023/11/11 12:06:21;;;;;;;7.30;4.60;;;;;;;;;;5041188;28;20450;-80
2023/11/11 12:08:49;;;;;;;8.60;5.17;;;;;;;;;;5032481;28;20543;-78
2023/11/11 12:11:24;;;;;;;7.20;5.10;;;;;;;;;;5032328;28;20475;-79
2023/11/11 12:13:52;;;;;;;6.90;4.20;;;;;;;;;;5028940;28;20461;-79
2023/11/11 12:16:42;;;;;;;7.20;5.27;;;;;;;;;;5040373;28;20470;-79
2023/11/11 12:19:13;;;;;;;7.30;3.57;;;;;;;;;;5040525;28;20530;-78
2023/11/11 12:21:42;;;;;;;9.07;3.83;;;;;;;;;;5044076;28;20469;-78
2023/11/11 12:24:17;;;;;;;10.23;4.53;;;;;;;;;;5031398;28;20463;-79
2023/11/11 12:26:47;;;;;;;4.37;3.20;;;;;;;;;;5038865;28;20532;-79
2023/11/11 12:29:21;;;;;;;7.00;3.70;;;;;;;;;;5034563;28;20549;-79
2023/11/11 12:32:01;;;;;;;6.43;3.53;;;;;;;;;;5037363;28;20485;-79
2023/11/11 12:34:31;;;;;;;5.13;2.87;;;;;;;;;;5036097;28;20478;-79
2023/11/11 12:37:02;;;;;;;5.00;3.10;;;;;;;;;;5038604;28;20449;-78
2023/11/11 12:39:32;;;;;;;4.37;3.03;;;;;;;;;;5038346;28;20466;-80
2023/11/11 12:42:03;;;;;;;4.70;3.17;;;;;;;;;;5040873;28;20454;-79
2023/11/11 12:44:41;;;;;;;8.07;3.23;;;;;;;;;;5037812;28;20478;-78
2023/11/11 12:47:15;;;;;;;5.10;3.30;;;;;;;;;;5032622;28;20482;-79
2023/11/11 12:49:52;;;;;;;5.87;2.73;;;;;;;;;;5030038;28;20824;-79
2023/11/11 12:52:21;;;;;;;4.70;2.83;;;;;;;;;;5034652;28;20453;-79
2023/11/11 12:54:49;;;;;;;6.33;3.23;;;;;;;;;;5037584;28;20588;-80
2023/11/11 12:57:25;;;;;;;4.80;2.87;;;;;;;;;;5042611;28;20492;-80
2023/11/11 12:59:56;;;;;;;5.27;2.53;;;;;;;;;;5043517;28;20713;-79
2023/11/11 13:02:30;;;;;;;3.67;2.67;;;;;;;;;;5036489;28;21213;-77
2023/11/11 13:05:07;;;;;;;5.00;2.40;;;;;;;;;;5044987;28;20463;-79
2023/11/11 13:07:41;;;;;;;6.47;3.00;;;;;;;;;;5027338;28;20969;-78
2023/11/11 13:10:11;;;;;;;3.80;2.50;;;;;;;;;;5050563;28;20563;-79
2023/11/11 13:12:42;;;;;;;6.27;2.83;;;;;;;;;;5044183;28;20447;-80
2023/11/11 13:15:14;;;;;;;5.80;2.93;;;;;;;;;;5043246;28;20462;-79
2023/11/11 13:17:49;;;;;;;4.93;3.10;;;;;;;;;;5038100;28;20466;-78
2023/11/11 13:23:45;;;;;;;6.57;3.50;;;;;;;;;;4957487;29;20533;-79
2023/11/11 13:26:24;;;;;;;4.43;2.83;;;;;;;;;;5040515;28;20466;-78
2023/11/11 13:29:00;;;;;;;6.90;2.80;;;;;;;;;;5041949;28;20457;-78
2023/11/11 13:31:32;;;;;;;6.03;3.37;;;;;;;;;;5038653;28;20486;-78
2023/11/11 13:34:10;;;;;;;5.77;3.80;;;;;;;;;;5043441;28;20457;-79
2023/11/11 13:36:54;;;;;;;3.77;2.23;;;;;;;;;;5044419;28;20439;-79
2023/11/11 13:47:20;;;;;;;5.40;3.00;;;;;;;;;;5056857;28;20667;-77
2023/11/11 13:49:47;;;;;;;3.57;2.50;;;;;;;;;;5060807;28;20254;-79
2023/11/11 13:52:20;;;;;;;5.93;2.90;;;;;;;;;;5062373;28;20449;-79
2023/11/11 14:01:00;;;;;;;3.50;1.90;;;;;;;;;;5059917;28;20476;-79
2023/11/11 14:28:23;;;;;;;3.77;2.20;;;;;;;;;;5067453;28;20296;-77
2023/11/11 14:31:05;;;;;;;5.70;1.90;;;;;;;;;;5065527;28;20519;-79
2023/11/11 14:33:42;;;;;;;6.67;2.47;;;;;;;;;;5069483;28;20453;-77
2023/11/11 14:39:18;;;;;;;5.07;2.20;;;;;;;;;;5061867;28;20498;-79
2023/11/11 14:44:45;;;;;;;4.20;2.40;;;;;;;;;;5059702;28;20487;-78
2023/11/11 14:47:17;;;;;;;5.30;2.33;;;;;;;;;;5086739;28;20452;-78
2023/11/11 14:56:30;;;;;;;4.40;2.30;;;;;;;;;;5060998;28;20458;-78
2023/11/11 15:08:48;;;;;;;5.27;1.90;;;;;;;;;;5056801;28;20600;-78
2023/11/11 15:29:50;;;;;;;10.77;2.63;;;;;;;;;;5063001;28;20833;-79
2023/11/11 15:32:24;;;;;;;3.97;1.97;;;;;;;;;;5066017;28;20466;-78
2023/11/11 15:41:34;;;;;;;3.30;1.90;;;;;;;;;;5022371;28;20476;-80
2023/11/11 15:44:03;;;;;;;7.50;3.50;;;;;;;;;;5060793;28;20463;-80
2023/11/11 15:46:38;;;;;;;5.20;2.90;;;;;;;;;;5058455;28;20460;-78
2023/11/11 15:49:10;;;;;;;4.60;2.27;;;;;;;;;;5059840;28;20473;-79
2023/11/11 15:51:47;;;;;;;2.93;1.27;;;;;;;;;;5055475;28;20484;-79
2023/11/11 15:54:16;;;;;;;3.60;1.97;;;;;;;;;;5054372;28;21014;-79
2023/11/11 15:56:46;;;;;;;4.10;1.80;;;;;;;;;;5060701;28;20565;-79
2023/11/11 15:59:30;;;;;;;5.30;1.60;;;;;;;;;;5062674;28;20497;-79
2023/11/11 16:02:17;;;;;;;5.90;2.47;;;;;;;;;;5048987;28;20470;-79
2023/11/11 16:04:51;;;;;;;4.77;2.00;;;;;;;;;;5056871;28;20473;-80
2023/11/11 16:07:20;;;;;;;4.73;2.80;;;;;;;;;;5063605;28;20543;-79
2023/11/11 16:09:51;;;;;;;4.33;2.20;;;;;;;;;;5061191;28;20524;-77
2023/11/11 16:12:20;;;;;;;4.20;2.20;;;;;;;;;;5046891;28;20450;-79
2023/11/11 16:14:54;;;;;;;5.10;2.33;;;;;;;;;;5054288;28;20900;-79
2023/11/11 16:17:26;;;;;;;3.60;1.87;;;;;;;;;;5061281;28;20472;-79
2023/11/11 16:19:56;;;;;;;6.00;2.17;;;;;;;;;;5064115;28;20453;-79
2023/11/11 16:22:29;;;;;;;5.93;2.03;;;;;;;;;;5064761;28;20544;-78
2023/11/11 16:25:07;;;;;;;3.40;1.70;;;;;;;;;;5064088;28;20485;-79
2023/11/11 16:27:41;;;;;;;4.17;2.10;;;;;;;;;;5066923;28;20522;-79
2023/11/11 16:47:03;;;;;;;3.10;1.63;;;;;;;;;;4997936;27;3673380;-79